sensor_id;sensor_type;location;lat;lon;timestamp;P1;durP1;ratioP1;P2;durP2;ratioP2
4565;SDS011;2295;51.050;14.608;2024-01-27T00:01:27;5.43;;;1.45;;
4565;SDS011;2295;51.050;14.608;2024-01-27T00:03:58;12.07;;;1.33;;
4565;SDS011;2295;51.050;14.608;2024-01-27T00:06:30;5.10;;;1.10;;
4565;SDS011;2295;51.050;14.608;2024-01-27T00:08:58;7.45;;;1.02;;
4565;SDS011;2295;51.050;14.608;2024-01-27T00:11:29;23.83;;;1.45;;
4565;SDS011;2295;51.050;14.608;2024-01-27T00:13:58;13.98;;;1.38;;
4565;SDS011;2295;51.050;14.608;2024-01-27T00:16:29;20.40;;;1.35;;
4565;SDS011;2295;51.050;14.608;2024-01-27T00:18:57;6.47;;;1.55;;
4565;SDS011;2295;51.050;14.608;2024-01-27T00:21:28;7.93;;;1.60;;
4565;SDS011;2295;51.050;14.608;2024-01-27T00:24:08;13.10;;;1.27;;
4565;SDS011;2295;51.050;14.608;2024-01-27T00:26:42;8.32;;;1.30;;
4565;SDS011;2295;51.050;14.608;2024-01-27T00:29:11;11.23;;;1.58;;
4565;SDS011;2295;51.050;14.608;2024-01-27T00:31:41;2.67;;;0.82;;
4565;SDS011;2295;51.050;14.608;2024-01-27T00:34:10;11.45;;;1.50;;
4565;SDS011;2295;51.050;14.608;2024-01-27T00:36:41;5.18;;;1.00;;
4565;SDS011;2295;51.050;14.608;2024-01-27T00:39:21;3.88;;;0.77;;
4565;SDS011;2295;51.050;14.608;2024-01-27T00:42:01;12.07;;;1.20;;
4565;SDS011;2295;51.050;14.608;2024-01-27T00:44:39;4.60;;;1.42;;
4565;SDS011;2295;51.050;14.608;2024-01-27T00:47:09;6.13;;;1.58;;
4565;SDS011;2295;51.050;14.608;2024-01-27T00:49:38;5.82;;;1.48;;
4565;SDS011;2295;51.050;14.608;2024-01-27T00:52:06;9.95;;;1.35;;
4565;SDS011;2295;51.050;14.608;2024-01-27T00:54:35;26.10;;;1.98;;
4565;SDS011;2295;51.050;14.608;2024-01-27T00:57:03;19.48;;;1.70;;
4565;SDS011;2295;51.050;14.608;2024-01-27T00:59:35;12.30;;;1.60;;
4565;SDS011;2295;51.050;14.608;2024-01-27T01:02:18;13.70;;;3.25;;
4565;SDS011;2295;51.050;14.608;2024-01-27T01:04:48;12.68;;;1.08;;
4565;SDS011;2295;51.050;14.608;2024-01-27T01:07:29;4.70;;;1.10;;
4565;SDS011;2295;51.050;14.608;2024-01-27T01:10:02;8.57;;;1.50;;
4565;SDS011;2295;51.050;14.608;2024-01-27T01:12:59;14.65;;;1.25;;
4565;SDS011;2295;51.050;14.608;2024-01-27T01:15:27;15.18;;;1.92;;
4565;SDS011;2295;51.050;14.608;2024-01-27T01:17:58;9.80;;;1.30;;
4565;SDS011;2295;51.050;14.608;2024-01-27T01:20:26;8.48;;;1.52;;
4565;SDS011;2295;51.050;14.608;2024-01-27T01:23:07;8.32;;;1.58;;
4565;SDS011;2295;51.050;14.608;2024-01-27T01:25:38;6.95;;;1.35;;
4565;SDS011;2295;51.050;14.608;2024-01-27T01:28:17;7.30;;;1.20;;
4565;SDS011;2295;51.050;14.608;2024-01-27T01:30:45;9.77;;;1.45;;
4565;SDS011;2295;51.050;14.608;2024-01-27T01:33:17;11.75;;;1.45;;
4565;SDS011;2295;51.050;14.608;2024-01-27T01:35:46;6.18;;;1.23;;
4565;SDS011;2295;51.050;14.608;2024-01-27T01:38:15;9.13;;;1.25;;
4565;SDS011;2295;51.050;14.608;2024-01-27T01:40:43;16.13;;;1.58;;
4565;SDS011;2295;51.050;14.608;2024-01-27T01:43:21;17.30;;;2.20;;
4565;SDS011;2295;51.050;14.608;2024-01-27T01:45:53;7.47;;;1.42;;
4565;SDS011;2295;51.050;14.608;2024-01-27T01:48:23;4.30;;;0.93;;
4565;SDS011;2295;51.050;14.608;2024-01-27T01:50:51;12.15;;;1.65;;
4565;SDS011;2295;51.050;14.608;2024-01-27T01:53:20;9.32;;;1.50;;
4565;SDS011;2295;51.050;14.608;2024-01-27T01:55:50;3.55;;;1.27;;
4565;SDS011;2295;51.050;14.608;2024-01-27T01:58:19;7.43;;;2.08;;
4565;SDS011;2295;51.050;14.608;2024-01-27T02:00:57;5.43;;;1.40;;
4565;SDS011;2295;51.050;14.608;2024-01-27T02:03:30;4.47;;;1.13;;
4565;SDS011;2295;51.050;14.608;2024-01-27T02:05:59;13.95;;;1.75;;
4565;SDS011;2295;51.050;14.608;2024-01-27T02:08:28;15.50;;;1.80;;
4565;SDS011;2295;51.050;14.608;2024-01-27T02:10:56;12.90;;;1.50;;
4565;SDS011;2295;51.050;14.608;2024-01-27T02:13:27;8.93;;;1.90;;
4565;SDS011;2295;51.050;14.608;2024-01-27T02:15:57;5.53;;;1.45;;
4565;SDS011;2295;51.050;14.608;2024-01-27T02:18:27;7.65;;;1.58;;
4565;SDS011;2295;51.050;14.608;2024-01-27T02:21:04;12.52;;;1.83;;
4565;SDS011;2295;51.050;14.608;2024-01-27T02:23:58;11.40;;;1.33;;
4565;SDS011;2295;51.050;14.608;2024-01-27T02:26:34;9.48;;;1.35;;
4565;SDS011;2295;51.050;14.608;2024-01-27T02:29:03;10.77;;;1.33;;
4565;SDS011;2295;51.050;14.608;2024-01-27T02:31:36;8.75;;;1.27;;
4565;SDS011;2295;51.050;14.608;2024-01-27T02:34:13;7.35;;;1.50;;
4565;SDS011;2295;51.050;14.608;2024-01-27T02:36:42;5.47;;;1.52;;
4565;SDS011;2295;51.050;14.608;2024-01-27T02:39:11;12.32;;;1.83;;
4565;SDS011;2295;51.050;14.608;2024-01-27T02:41:41;11.30;;;1.75;;
4565;SDS011;2295;51.050;14.608;2024-01-27T02:44:09;4.68;;;1.13;;
4565;SDS011;2295;51.050;14.608;2024-01-27T02:46:37;9.02;;;1.30;;
4565;SDS011;2295;51.050;14.608;2024-01-27T02:49:07;13.90;;;1.55;;
4565;SDS011;2295;51.050;14.608;2024-01-27T02:51:35;12.63;;;1.90;;
4565;SDS011;2295;51.050;14.608;2024-01-27T02:54:06;13.98;;;1.38;;
4565;SDS011;2295;51.050;14.608;2024-01-27T02:56:51;6.03;;;1.50;;
4565;SDS011;2295;51.050;14.608;2024-01-27T02:59:22;11.80;;;1.83;;
4565;SDS011;2295;51.050;14.608;2024-01-27T03:01:54;9.57;;;1.30;;
4565;SDS011;2295;51.050;14.608;2024-01-27T03:04:27;6.93;;;1.27;;
4565;SDS011;2295;51.050;14.608;2024-01-27T03:06:56;4.75;;;1.45;;
4565;SDS011;2295;51.050;14.608;2024-01-27T03:09:35;20.42;;;2.35;;
4565;SDS011;2295;51.050;14.608;2024-01-27T03:12:38;10.68;;;2.00;;
4565;SDS011;2295;51.050;14.608;2024-01-27T03:15:18;13.02;;;1.35;;
4565;SDS011;2295;51.050;14.608;2024-01-27T03:17:47;10.57;;;2.10;;
4565;SDS011;2295;51.050;14.608;2024-01-27T03:20:15;18.20;;;1.92;;
4565;SDS011;2295;51.050;14.608;2024-01-27T03:22:44;6.63;;;1.17;;
4565;SDS011;2295;51.050;14.608;2024-01-27T03:25:12;8.75;;;1.63;;
4565;SDS011;2295;51.050;14.608;2024-01-27T03:28:17;19.48;;;1.80;;
4565;SDS011;2295;51.050;14.608;2024-01-27T03:30:45;14.55;;;1.55;;
4565;SDS011;2295;51.050;14.608;2024-01-27T03:33:26;5.07;;;1.23;;
4565;SDS011;2295;51.050;14.608;2024-01-27T03:36:16;13.07;;;1.48;;
4565;SDS011;2295;51.050;14.608;2024-01-27T03:39:05;10.48;;;1.63;;
4565;SDS011;2295;51.050;14.608;2024-01-27T03:42:04;8.23;;;1.30;;
4565;SDS011;2295;51.050;14.608;2024-01-27T03:44:36;18.65;;;1.55;;
4565;SDS011;2295;51.050;14.608;2024-01-27T03:47:34;10.10;;;1.30;;
4565;SDS011;2295;51.050;14.608;2024-01-27T03:50:08;16.02;;;1.52;;
4565;SDS011;2295;51.050;14.608;2024-01-27T03:53:03;11.80;;;1.50;;
4565;SDS011;2295;51.050;14.608;2024-01-27T03:55:43;19.73;;;2.00;;
4565;SDS011;2295;51.050;14.608;2024-01-27T03:58:53;14.07;;;1.77;;
4565;SDS011;2295;51.050;14.608;2024-01-27T04:01:26;10.95;;;1.30;;
4565;SDS011;2295;51.050;14.608;2024-01-27T04:03:54;12.80;;;1.60;;
4565;SDS011;2295;51.050;14.608;2024-01-27T04:06:24;9.55;;;1.60;;
4565;SDS011;2295;51.050;14.608;2024-01-27T04:08:53;8.02;;;2.13;;
4565;SDS011;2295;51.050;14.608;2024-01-27T04:11:28;11.30;;;1.55;;
4565;SDS011;2295;51.050;14.608;2024-01-27T04:13:59;6.30;;;1.38;;
4565;SDS011;2295;51.050;14.608;2024-01-27T04:16:32;6.78;;;1.75;;
4565;SDS011;2295;51.050;14.608;2024-01-27T04:19:01;8.85;;;1.58;;
4565;SDS011;2295;51.050;14.608;2024-01-27T04:21:35;11.98;;;1.90;;
4565;SDS011;2295;51.050;14.608;2024-01-27T04:24:04;11.52;;;2.05;;
4565;SDS011;2295;51.050;14.608;2024-01-27T04:26:35;10.45;;;2.10;;
4565;SDS011;2295;51.050;14.608;2024-01-27T04:29:15;16.00;;;1.75;;
4565;SDS011;2295;51.050;14.608;2024-01-27T04:31:45;11.25;;;1.50;;
4565;SDS011;2295;51.050;14.608;2024-01-27T04:34:13;15.48;;;1.55;;
4565;SDS011;2295;51.050;14.608;2024-01-27T04:36:46;15.98;;;1.80;;
4565;SDS011;2295;51.050;14.608;2024-01-27T04:39:21;13.88;;;1.60;;
4565;SDS011;2295;51.050;14.608;2024-01-27T04:42:23;7.28;;;1.67;;
4565;SDS011;2295;51.050;14.608;2024-01-27T04:44:52;12.07;;;1.30;;
4565;SDS011;2295;51.050;14.608;2024-01-27T04:47:22;13.45;;;1.80;;
4565;SDS011;2295;51.050;14.608;2024-01-27T04:49:51;10.07;;;1.60;;
4565;SDS011;2295;51.050;14.608;2024-01-27T04:52:20;10.02;;;1.65;;
4565;SDS011;2295;51.050;14.608;2024-01-27T04:55:12;18.77;;;2.05;;
4565;SDS011;2295;51.050;14.608;2024-01-27T04:57:49;9.95;;;1.63;;
4565;SDS011;2295;51.050;14.608;2024-01-27T05:00:20;9.20;;;1.33;;
4565;SDS011;2295;51.050;14.608;2024-01-27T05:02:50;16.60;;;1.60;;
4565;SDS011;2295;51.050;14.608;2024-01-27T05:05:25;3.60;;;1.45;;
4565;SDS011;2295;51.050;14.608;2024-01-27T05:08:11;9.35;;;1.30;;
4565;SDS011;2295;51.050;14.608;2024-01-27T05:10:52;6.13;;;1.63;;
4565;SDS011;2295;51.050;14.608;2024-01-27T05:13:24;13.85;;;1.65;;
4565;SDS011;2295;51.050;14.608;2024-01-27T05:15:56;9.15;;;1.70;;
4565;SDS011;2295;51.050;14.608;2024-01-27T05:18:25;17.15;;;2.45;;
4565;SDS011;2295;51.050;14.608;2024-01-27T05:20:54;6.05;;;1.98;;
4565;SDS011;2295;51.050;14.608;2024-01-27T05:23:22;19.48;;;2.60;;
4565;SDS011;2295;51.050;14.608;2024-01-27T05:25:51;12.93;;;2.70;;
4565;SDS011;2295;51.050;14.608;2024-01-27T05:28:21;6.53;;;1.40;;
4565;SDS011;2295;51.050;14.608;2024-01-27T05:30:52;3.15;;;1.08;;
4565;SDS011;2295;51.050;14.608;2024-01-27T05:33:21;6.50;;;1.67;;
4565;SDS011;2295;51.050;14.608;2024-01-27T05:35:50;5.03;;;1.55;;
4565;SDS011;2295;51.050;14.608;2024-01-27T05:38:22;5.40;;;1.30;;
4565;SDS011;2295;51.050;14.608;2024-01-27T05:40:52;15.07;;;1.30;;
4565;SDS011;2295;51.050;14.608;2024-01-27T05:43:20;7.03;;;1.25;;
4565;SDS011;2295;51.050;14.608;2024-01-27T05:45:49;15.77;;;2.85;;
4565;SDS011;2295;51.050;14.608;2024-01-27T05:48:46;6.53;;;1.90;;
4565;SDS011;2295;51.050;14.608;2024-01-27T05:54:52;12.23;;;1.73;;
4565;SDS011;2295;51.050;14.608;2024-01-27T05:57:40;8.48;;;1.30;;
4565;SDS011;2295;51.050;14.608;2024-01-27T06:00:09;7.65;;;1.30;;
4565;SDS011;2295;51.050;14.608;2024-01-27T06:02:38;8.23;;;1.10;;
4565;SDS011;2295;51.050;14.608;2024-01-27T06:05:25;15.82;;;2.10;;
4565;SDS011;2295;51.050;14.608;2024-01-27T06:07:57;13.82;;;2.08;;
4565;SDS011;2295;51.050;14.608;2024-01-27T06:10:37;10.82;;;1.83;;
4565;SDS011;2295;51.050;14.608;2024-01-27T06:13:06;11.30;;;1.70;;
4565;SDS011;2295;51.050;14.608;2024-01-27T06:15:35;9.48;;;1.70;;
4565;SDS011;2295;51.050;14.608;2024-01-27T06:18:06;9.13;;;1.58;;
4565;SDS011;2295;51.050;14.608;2024-01-27T06:20:41;5.35;;;1.20;;
4565;SDS011;2295;51.050;14.608;2024-01-27T06:23:37;14.82;;;1.98;;
4565;SDS011;2295;51.050;14.608;2024-01-27T06:26:07;10.35;;;1.65;;
4565;SDS011;2295;51.050;14.608;2024-01-27T06:28:36;16.95;;;2.42;;
4565;SDS011;2295;51.050;14.608;2024-01-27T06:31:05;9.80;;;1.75;;
4565;SDS011;2295;51.050;14.608;2024-01-27T06:33:34;16.98;;;2.03;;
4565;SDS011;2295;51.050;14.608;2024-01-27T06:36:06;14.75;;;1.63;;
4565;SDS011;2295;51.050;14.608;2024-01-27T06:38:47;14.20;;;1.90;;
4565;SDS011;2295;51.050;14.608;2024-01-27T06:41:21;11.30;;;2.25;;
4565;SDS011;2295;51.050;14.608;2024-01-27T06:43:49;9.98;;;1.67;;
4565;SDS011;2295;51.050;14.608;2024-01-27T06:46:21;18.95;;;1.98;;
4565;SDS011;2295;51.050;14.608;2024-01-27T06:48:49;7.22;;;1.30;;
4565;SDS011;2295;51.050;14.608;2024-01-27T06:51:27;18.88;;;1.63;;
4565;SDS011;2295;51.050;14.608;2024-01-27T06:53:56;14.73;;;1.80;;
4565;SDS011;2295;51.050;14.608;2024-01-27T06:56:46;12.73;;;1.17;;
4565;SDS011;2295;51.050;14.608;2024-01-27T06:59:14;17.02;;;2.58;;
4565;SDS011;2295;51.050;14.608;2024-01-27T07:01:48;19.15;;;2.35;;
4565;SDS011;2295;51.050;14.608;2024-01-27T07:04:23;18.70;;;1.90;;
4565;SDS011;2295;51.050;14.608;2024-01-27T07:07:06;6.97;;;1.40;;
4565;SDS011;2295;51.050;14.608;2024-01-27T07:09:49;13.48;;;2.00;;
4565;SDS011;2295;51.050;14.608;2024-01-27T07:12:19;18.33;;;1.90;;
4565;SDS011;2295;51.050;14.608;2024-01-27T07:14:56;16.65;;;1.75;;
4565;SDS011;2295;51.050;14.608;2024-01-27T07:17:27;9.02;;;1.20;;
4565;SDS011;2295;51.050;14.608;2024-01-27T07:19:55;5.97;;;1.50;;
4565;SDS011;2295;51.050;14.608;2024-01-27T07:25:16;10.00;;;2.25;;
4565;SDS011;2295;51.050;14.608;2024-01-27T07:27:51;12.85;;;1.63;;
4565;SDS011;2295;51.050;14.608;2024-01-27T07:30:24;12.43;;;2.10;;
4565;SDS011;2295;51.050;14.608;2024-01-27T07:32:52;14.35;;;1.95;;
4565;SDS011;2295;51.050;14.608;2024-01-27T07:35:24;8.07;;;1.23;;
4565;SDS011;2295;51.050;14.608;2024-01-27T07:37:52;19.67;;;2.20;;
4565;SDS011;2295;51.050;14.608;2024-01-27T07:40:21;11.07;;;1.70;;
4565;SDS011;2295;51.050;14.608;2024-01-27T07:42:51;15.77;;;1.98;;
4565;SDS011;2295;51.050;14.608;2024-01-27T07:45:19;8.68;;;1.70;;
4565;SDS011;2295;51.050;14.608;2024-01-27T07:47:48;10.07;;;2.17;;
4565;SDS011;2295;51.050;14.608;2024-01-27T07:50:19;17.75;;;2.78;;
4565;SDS011;2295;51.050;14.608;2024-01-27T07:52:49;9.77;;;2.17;;
4565;SDS011;2295;51.050;14.608;2024-01-27T07:55:27;16.20;;;2.50;;
4565;SDS011;2295;51.050;14.608;2024-01-27T07:57:57;8.63;;;1.75;;
4565;SDS011;2295;51.050;14.608;2024-01-27T08:00:25;12.23;;;2.13;;
4565;SDS011;2295;51.050;14.608;2024-01-27T08:03:04;9.80;;;2.22;;
4565;SDS011;2295;51.050;14.608;2024-01-27T08:05:33;5.47;;;1.50;;
4565;SDS011;2295;51.050;14.608;2024-01-27T08:08:01;10.85;;;2.00;;
4565;SDS011;2295;51.050;14.608;2024-01-27T08:10:33;8.18;;;1.85;;
4565;SDS011;2295;51.050;14.608;2024-01-27T08:13:04;12.30;;;2.47;;
4565;SDS011;2295;51.050;14.608;2024-01-27T08:15:33;18.77;;;2.60;;
4565;SDS011;2295;51.050;14.608;2024-01-27T08:18:05;9.90;;;1.95;;
4565;SDS011;2295;51.050;14.608;2024-01-27T08:20:34;9.98;;;1.92;;
4565;SDS011;2295;51.050;14.608;2024-01-27T08:23:03;8.48;;;1.42;;
4565;SDS011;2295;51.050;14.608;2024-01-27T08:25:33;27.33;;;3.60;;
4565;SDS011;2295;51.050;14.608;2024-01-27T08:28:07;17.27;;;2.80;;
4565;SDS011;2295;51.050;14.608;2024-01-27T08:30:36;14.85;;;2.85;;
4565;SDS011;2295;51.050;14.608;2024-01-27T08:33:04;21.02;;;2.22;;
4565;SDS011;2295;51.050;14.608;2024-01-27T08:35:34;12.18;;;2.47;;
4565;SDS011;2295;51.050;14.608;2024-01-27T08:38:05;16.20;;;3.35;;
4565;SDS011;2295;51.050;14.608;2024-01-27T08:40:37;21.55;;;4.47;;
4565;SDS011;2295;51.050;14.608;2024-01-27T08:43:06;16.73;;;3.20;;
4565;SDS011;2295;51.050;14.608;2024-01-27T08:45:39;19.67;;;3.60;;
4565;SDS011;2295;51.050;14.608;2024-01-27T08:48:08;8.73;;;2.55;;
4565;SDS011;2295;51.050;14.608;2024-01-27T08:50:38;15.35;;;3.20;;
4565;SDS011;2295;51.050;14.608;2024-01-27T08:53:06;10.05;;;2.10;;
4565;SDS011;2295;51.050;14.608;2024-01-27T08:55:35;20.88;;;3.25;;
4565;SDS011;2295;51.050;14.608;2024-01-27T08:58:14;9.82;;;1.92;;
4565;SDS011;2295;51.050;14.608;2024-01-27T09:00:42;12.38;;;1.95;;
4565;SDS011;2295;51.050;14.608;2024-01-27T09:03:11;14.55;;;2.25;;
4565;SDS011;2295;51.050;14.608;2024-01-27T09:05:40;13.10;;;2.42;;
4565;SDS011;2295;51.050;14.608;2024-01-27T09:08:11;15.18;;;2.30;;
4565;SDS011;2295;51.050;14.608;2024-01-27T09:10:40;19.17;;;2.13;;
4565;SDS011;2295;51.050;14.608;2024-01-27T09:13:08;8.70;;;2.10;;
4565;SDS011;2295;51.050;14.608;2024-01-27T09:15:38;11.88;;;2.22;;
4565;SDS011;2295;51.050;14.608;2024-01-27T09:18:06;14.15;;;3.00;;
4565;SDS011;2295;51.050;14.608;2024-01-27T09:20:36;22.08;;;3.72;;
4565;SDS011;2295;51.050;14.608;2024-01-27T09:23:04;11.55;;;2.90;;
4565;SDS011;2295;51.050;14.608;2024-01-27T09:25:32;13.32;;;2.15;;
4565;SDS011;2295;51.050;14.608;2024-01-27T09:28:03;13.55;;;2.15;;
4565;SDS011;2295;51.050;14.608;2024-01-27T09:30:32;9.05;;;2.70;;
4565;SDS011;2295;51.050;14.608;2024-01-27T09:33:06;14.77;;;3.22;;
4565;SDS011;2295;51.050;14.608;2024-01-27T09:35:37;8.00;;;2.72;;
4565;SDS011;2295;51.050;14.608;2024-01-27T09:38:06;11.02;;;3.08;;
4565;SDS011;2295;51.050;14.608;2024-01-27T09:40:36;19.98;;;2.58;;
4565;SDS011;2295;51.050;14.608;2024-01-27T09:43:07;25.50;;;3.22;;
4565;SDS011;2295;51.050;14.608;2024-01-27T09:45:40;9.10;;;2.45;;
4565;SDS011;2295;51.050;14.608;2024-01-27T09:48:10;18.77;;;3.20;;
4565;SDS011;2295;51.050;14.608;2024-01-27T09:50:41;15.23;;;2.75;;
4565;SDS011;2295;51.050;14.608;2024-01-27T09:53:09;12.48;;;2.30;;
4565;SDS011;2295;51.050;14.608;2024-01-27T09:55:38;9.38;;;2.33;;
4565;SDS011;2295;51.050;14.608;2024-01-27T09:58:07;22.80;;;2.63;;
4565;SDS011;2295;51.050;14.608;2024-01-27T10:00:36;13.73;;;3.03;;
4565;SDS011;2295;51.050;14.608;2024-01-27T10:03:06;20.95;;;2.63;;
4565;SDS011;2295;51.050;14.608;2024-01-27T10:05:37;15.20;;;2.90;;
4565;SDS011;2295;51.050;14.608;2024-01-27T10:08:11;19.20;;;3.00;;
4565;SDS011;2295;51.050;14.608;2024-01-27T10:10:39;22.83;;;2.83;;
4565;SDS011;2295;51.050;14.608;2024-01-27T10:13:08;11.20;;;2.40;;
4565;SDS011;2295;51.050;14.608;2024-01-27T10:15:40;18.00;;;3.28;;
4565;SDS011;2295;51.050;14.608;2024-01-27T10:18:10;12.95;;;3.05;;
4565;SDS011;2295;51.050;14.608;2024-01-27T10:20:43;11.52;;;2.83;;
4565;SDS011;2295;51.050;14.608;2024-01-27T10:23:14;18.90;;;3.83;;
4565;SDS011;2295;51.050;14.608;2024-01-27T10:25:43;24.85;;;3.67;;
4565;SDS011;2295;51.050;14.608;2024-01-27T10:28:13;23.58;;;2.90;;
4565;SDS011;2295;51.050;14.608;2024-01-27T10:30:41;11.65;;;3.35;;
4565;SDS011;2295;51.050;14.608;2024-01-27T10:33:10;19.08;;;3.80;;
4565;SDS011;2295;51.050;14.608;2024-01-27T10:35:40;12.25;;;2.80;;
4565;SDS011;2295;51.050;14.608;2024-01-27T10:38:10;16.13;;;3.97;;
4565;SDS011;2295;51.050;14.608;2024-01-27T10:40:39;17.60;;;3.15;;
4565;SDS011;2295;51.050;14.608;2024-01-27T10:43:07;16.55;;;3.75;;
4565;SDS011;2295;51.050;14.608;2024-01-27T10:45:37;14.77;;;2.60;;
4565;SDS011;2295;51.050;14.608;2024-01-27T10:48:08;18.33;;;3.28;;
4565;SDS011;2295;51.050;14.608;2024-01-27T10:50:39;17.42;;;3.38;;
4565;SDS011;2295;51.050;14.608;2024-01-27T10:53:17;15.05;;;2.80;;
4565;SDS011;2295;51.050;14.608;2024-01-27T10:55:52;20.13;;;3.20;;
4565;SDS011;2295;51.050;14.608;2024-01-27T10:58:22;11.60;;;3.30;;
4565;SDS011;2295;51.050;14.608;2024-01-27T11:00:52;17.13;;;3.67;;
4565;SDS011;2295;51.050;14.608;2024-01-27T11:03:23;21.05;;;3.58;;
4565;SDS011;2295;51.050;14.608;2024-01-27T11:05:54;21.35;;;3.30;;
4565;SDS011;2295;51.050;14.608;2024-01-27T11:08:25;15.60;;;3.67;;
4565;SDS011;2295;51.050;14.608;2024-01-27T11:14:13;18.80;;;3.03;;
4565;SDS011;2295;51.050;14.608;2024-01-27T11:17:03;17.98;;;3.50;;
4565;SDS011;2295;51.050;14.608;2024-01-27T11:19:39;14.50;;;3.60;;
4565;SDS011;2295;51.050;14.608;2024-01-27T11:22:23;20.90;;;3.53;;
4565;SDS011;2295;51.050;14.608;2024-01-27T11:25:04;13.70;;;3.85;;
4565;SDS011;2295;51.050;14.608;2024-01-27T11:27:44;17.55;;;4.05;;
4565;SDS011;2295;51.050;14.608;2024-01-27T11:30:26;21.02;;;3.42;;
4565;SDS011;2295;51.050;14.608;2024-01-27T11:33:10;21.90;;;3.25;;
4565;SDS011;2295;51.050;14.608;2024-01-27T11:35:59;20.77;;;3.03;;
4565;SDS011;2295;51.050;14.608;2024-01-27T11:38:32;10.48;;;2.97;;
4565;SDS011;2295;51.050;14.608;2024-01-27T11:41:05;17.45;;;3.53;;
4565;SDS011;2295;51.050;14.608;2024-01-27T11:43:37;15.85;;;3.50;;
4565;SDS011;2295;51.050;14.608;2024-01-27T11:46:11;22.70;;;4.10;;
4565;SDS011;2295;51.050;14.608;2024-01-27T11:48:42;11.77;;;3.65;;
4565;SDS011;2295;51.050;14.608;2024-01-27T11:51:14;14.18;;;3.92;;
4565;SDS011;2295;51.050;14.608;2024-01-27T11:53:43;17.10;;;4.30;;
4565;SDS011;2295;51.050;14.608;2024-01-27T11:56:14;16.73;;;4.35;;
4565;SDS011;2295;51.050;14.608;2024-01-27T11:58:46;20.63;;;4.18;;
4565;SDS011;2295;51.050;14.608;2024-01-27T12:01:15;12.60;;;3.50;;
4565;SDS011;2295;51.050;14.608;2024-01-27T12:03:44;9.98;;;3.05;;
4565;SDS011;2295;51.050;14.608;2024-01-27T12:06:17;22.13;;;3.20;;
4565;SDS011;2295;51.050;14.608;2024-01-27T12:08:49;8.13;;;3.75;;
4565;SDS011;2295;51.050;14.608;2024-01-27T12:11:22;21.92;;;4.18;;
4565;SDS011;2295;51.050;14.608;2024-01-27T12:13:53;20.58;;;3.80;;
4565;SDS011;2295;51.050;14.608;2024-01-27T12:16:24;20.63;;;3.65;;
4565;SDS011;2295;51.050;14.608;2024-01-27T12:18:53;10.27;;;3.35;;
4565;SDS011;2295;51.050;14.608;2024-01-27T12:21:22;19.63;;;4.00;;
4565;SDS011;2295;51.050;14.608;2024-01-27T12:23:51;13.77;;;3.40;;
4565;SDS011;2295;51.050;14.608;2024-01-27T12:26:34;14.35;;;3.40;;
4565;SDS011;2295;51.050;14.608;2024-01-27T12:29:05;16.58;;;4.22;;
4565;SDS011;2295;51.050;14.608;2024-01-27T12:31:34;23.20;;;3.42;;
4565;SDS011;2295;51.050;14.608;2024-01-27T12:35:04;15.48;;;4.40;;
4565;SDS011;2295;51.050;14.608;2024-01-27T12:37:34;18.52;;;3.90;;
4565;SDS011;2295;51.050;14.608;2024-01-27T12:40:38;24.48;;;3.85;;
4565;SDS011;2295;51.050;14.608;2024-01-27T12:43:13;23.08;;;3.47;;
4565;SDS011;2295;51.050;14.608;2024-01-27T12:45:42;13.52;;;3.75;;
4565;SDS011;2295;51.050;14.608;2024-01-27T12:48:24;15.77;;;3.35;;
4565;SDS011;2295;51.050;14.608;2024-01-27T12:50:59;13.57;;;3.67;;
4565;SDS011;2295;51.050;14.608;2024-01-27T12:53:31;13.40;;;3.28;;
4565;SDS011;2295;51.050;14.608;2024-01-27T12:56:00;8.35;;;3.42;;
4565;SDS011;2295;51.050;14.608;2024-01-27T12:58:50;14.40;;;3.78;;
4565;SDS011;2295;51.050;14.608;2024-01-27T13:01:19;13.57;;;3.10;;
4565;SDS011;2295;51.050;14.608;2024-01-27T13:03:49;15.50;;;3.85;;
4565;SDS011;2295;51.050;14.608;2024-01-27T13:06:24;15.60;;;4.10;;
4565;SDS011;2295;51.050;14.608;2024-01-27T13:08:53;16.75;;;3.75;;
4565;SDS011;2295;51.050;14.608;2024-01-27T13:11:21;20.55;;;4.10;;
4565;SDS011;2295;51.050;14.608;2024-01-27T13:13:55;19.55;;;4.10;;
4565;SDS011;2295;51.050;14.608;2024-01-27T13:16:35;15.07;;;2.85;;
4565;SDS011;2295;51.050;14.608;2024-01-27T13:19:04;16.38;;;4.47;;
4565;SDS011;2295;51.050;14.608;2024-01-27T13:21:37;15.98;;;4.00;;
4565;SDS011;2295;51.050;14.608;2024-01-27T13:24:06;26.60;;;4.68;;
4565;SDS011;2295;51.050;14.608;2024-01-27T13:27:01;27.88;;;4.93;;
4565;SDS011;2295;51.050;14.608;2024-01-27T13:29:43;23.92;;;4.50;;
4565;SDS011;2295;51.050;14.608;2024-01-27T13:32:40;18.05;;;3.45;;
4565;SDS011;2295;51.050;14.608;2024-01-27T13:35:09;21.17;;;4.07;;
4565;SDS011;2295;51.050;14.608;2024-01-27T13:37:40;14.70;;;4.32;;
4565;SDS011;2295;51.050;14.608;2024-01-27T13:40:11;10.85;;;3.45;;
4565;SDS011;2295;51.050;14.608;2024-01-27T13:42:42;11.90;;;3.03;;
4565;SDS011;2295;51.050;14.608;2024-01-27T13:45:13;19.25;;;4.82;;
4565;SDS011;2295;51.050;14.608;2024-01-27T13:47:51;18.13;;;3.28;;
4565;SDS011;2295;51.050;14.608;2024-01-27T13:50:27;16.00;;;3.05;;
4565;SDS011;2295;51.050;14.608;2024-01-27T13:52:58;20.08;;;3.65;;
4565;SDS011;2295;51.050;14.608;2024-01-27T13:55:29;18.23;;;3.50;;
4565;SDS011;2295;51.050;14.608;2024-01-27T13:58:00;9.73;;;2.83;;
4565;SDS011;2295;51.050;14.608;2024-01-27T14:00:30;22.30;;;3.85;;
4565;SDS011;2295;51.050;14.608;2024-01-27T14:03:03;18.98;;;2.85;;
4565;SDS011;2295;51.050;14.608;2024-01-27T14:05:56;15.77;;;3.00;;
4565;SDS011;2295;51.050;14.608;2024-01-27T14:08:24;11.35;;;2.90;;
4565;SDS011;2295;51.050;14.608;2024-01-27T14:10:56;10.98;;;2.75;;
4565;SDS011;2295;51.050;14.608;2024-01-27T14:13:28;15.93;;;3.35;;
4565;SDS011;2295;51.050;14.608;2024-01-27T14:15:57;15.30;;;2.55;;
4565;SDS011;2295;51.050;14.608;2024-01-27T14:18:26;16.65;;;3.00;;
4565;SDS011;2295;51.050;14.608;2024-01-27T14:20:55;16.17;;;2.85;;
4565;SDS011;2295;51.050;14.608;2024-01-27T14:23:24;31.85;;;2.88;;
4565;SDS011;2295;51.050;14.608;2024-01-27T14:26:03;18.67;;;2.95;;
4565;SDS011;2295;51.050;14.608;2024-01-27T14:28:42;17.42;;;3.13;;
4565;SDS011;2295;51.050;14.608;2024-01-27T14:31:15;22.17;;;3.42;;
4565;SDS011;2295;51.050;14.608;2024-01-27T14:33:44;25.20;;;3.38;;
4565;SDS011;2295;51.050;14.608;2024-01-27T14:36:17;9.57;;;2.10;;
4565;SDS011;2295;51.050;14.608;2024-01-27T14:38:50;9.43;;;2.13;;
4565;SDS011;2295;51.050;14.608;2024-01-27T14:41:22;17.60;;;2.60;;
4565;SDS011;2295;51.050;14.608;2024-01-27T14:43:54;17.58;;;2.55;;
4565;SDS011;2295;51.050;14.608;2024-01-27T14:46:33;10.02;;;2.78;;
4565;SDS011;2295;51.050;14.608;2024-01-27T14:49:54;10.82;;;2.30;;
4565;SDS011;2295;51.050;14.608;2024-01-27T14:52:42;17.05;;;3.20;;
4565;SDS011;2295;51.050;14.608;2024-01-27T14:55:16;16.45;;;3.00;;
4565;SDS011;2295;51.050;14.608;2024-01-27T14:57:45;10.80;;;2.88;;
4565;SDS011;2295;51.050;14.608;2024-01-27T15:00:14;14.15;;;3.35;;
4565;SDS011;2295;51.050;14.608;2024-01-27T15:02:51;13.98;;;3.28;;
4565;SDS011;2295;51.050;14.608;2024-01-27T15:05:22;8.48;;;3.10;;
4565;SDS011;2295;51.050;14.608;2024-01-27T15:07:51;17.75;;;2.78;;
4565;SDS011;2295;51.050;14.608;2024-01-27T15:10:19;12.77;;;3.08;;
4565;SDS011;2295;51.050;14.608;2024-01-27T15:12:50;14.23;;;3.55;;
4565;SDS011;2295;51.050;14.608;2024-01-27T15:15:19;16.60;;;3.22;;
4565;SDS011;2295;51.050;14.608;2024-01-27T15:17:47;16.05;;;3.45;;
4565;SDS011;2295;51.050;14.608;2024-01-27T15:20:17;14.05;;;3.38;;
4565;SDS011;2295;51.050;14.608;2024-01-27T15:22:46;13.70;;;3.10;;
4565;SDS011;2295;51.050;14.608;2024-01-27T15:25:14;12.32;;;2.78;;
4565;SDS011;2295;51.050;14.608;2024-01-27T15:30:37;12.98;;;2.83;;
4565;SDS011;2295;51.050;14.608;2024-01-27T15:33:23;23.38;;;2.90;;
4565;SDS011;2295;51.050;14.608;2024-01-27T15:36:15;18.83;;;4.57;;
4565;SDS011;2295;51.050;14.608;2024-01-27T15:38:49;10.02;;;2.83;;
4565;SDS011;2295;51.050;14.608;2024-01-27T15:41:17;14.70;;;3.30;;